Gothenburg, NE

12:17 AM CDT on July 14, 2014 (GMT -0500)
Kelly (KLXN) Elev 2411 ft | 40.79 °N, 99.78 °W | Change Station

Current weather conditions updated 22 minutes ago

Clear
Clear
69 °F
Feels Like 69 °F
N
5
Wind Variable Wind from West

Today is forecast to be nearly the same temperature as yesterday.

Today
High -- | Low -- °F
--% Chance of Precip.
Yesterday
High -- | Low -- °F
Precip. -- in
6:20 AM 9:11 PM
Waning Gibbous, 95% visible
Pressure 30.09 in
Visibility 10.0 miles
Clouds Clear
Dew Point 65 °F
Humidity 87%
Rainfall 0.00 in
Snow Depth Not available.
UV 0 out of 12
Pollen 4.90 out of 12
Air Quality Not available.
Flu Activity Sporadic
METAR KLXN 140455Z AUTO 26004KT 10SM CLR 21/19 A3009 RMK AO2 T02070185

More Conditions Fewer Conditions

Pressure 30.09 in
Visibility 10.0 miles
Clouds Clear
Dew Point 65 °F
Humidity 87%
Rainfall 0.00 in
Snow Depth Not available.
UV 0 out of 12
Pollen 4.90 out of 12
Air Quality Not available.
Flu Activity Sporadic
METAR KLXN 140455Z AUTO 26004KT 10SM CLR 21/19 A3009 RMK AO2 T02070185

More Conditions Fewer Conditions

10-Day Weather Forecast

Almanac

Astronomy

Jul. 14, 2014 Rise Set
Actual Time 6:20 AM CDT 9:11 PM CDT
Civil Twilight 5:48 AM CDT 9:44 PM CDT
Nautical Twilight 5:07 AM CDT 10:25 PM CDT
Astronomical Twilight 4:19 AM CDT 11:12 PM CDT
Moon 10:40 PM CDT 9:07 AM CDT
Length of Visible Light 15h 55m
Length of Day
14h 50m
Tomorrow will be 1m 23s shorter.
Waning Gibbous, 95% of the Moon is Illuminated
Today
Waning Gibbous
Jul 18
Last Quarter
Jul 26
New
Aug 3
First Quarter
Aug 10
Full

Today's Extremes

State Highs State Lows

Community

WunderPhotos

Upload Photos

1,733,563 photos uploaded!

Nearby

Snow Depth

Station Depth Elevation
No new snow has been reported.

Earthquake Activity

City Distance Mag. Time & Date
No recent earthquake activity has been reported nearby.
Minimum magnitude displayed is 2.5.

Coastal Water Temperatures

Place Temperature
No Stations Reporting

Nearby Weather Stations

Station Location Temp. Heat Index Dew Point Humidity Wind Precip. Elev Updated Type
Gothenburg, NE 71.3 °F 74 °F 61 °F 71% NE  at  1.0 mph 0.00 in / hr 2572 ft 12:16 AM CDT Normal
MesoWest WILLO2 , Willow Island, NE 73 °F 71 °F - - North  at  - 0.00 in / hr 2523 ft 11:00 PM CDT MADIS
MesoWest BRADY1 , Brady, NE 71 °F - - - North  at  - 0.00 in / hr 2649 ft 11:00 PM CDT MADIS
Cozad, Nebraska, Cozad, NE 67.2 °F - 63 °F 87% North  at  0.0 mph 0.00 in / hr 2487 ft 12:16 AM CDT Rapid Fire
MesoWest LEXNG1 , Lexington, NE 72 °F - - - North  at  - 0.00 in / hr 2411 ft 11:00 PM CDT MADIS
Mallard Bay, Johnson Lake, NE 69.9 °F - 60 °F 72% West  at  2.4 mph 0.00 in / hr 2623 ft 12:16 AM CDT Rapid Fire

Show More Stations Show Fewer Stations